Haci Arif Kaptan — TCQQ — position and weather

sailwx.info

Track history (hours):
 
Tides and Currents Weather Stations Pressure Air Temp Water Temp Dewpoint Dewpoint Depression Visibility Wind Speed Wind Dir Waves Ship Positions

Haci Arif Kaptan

Last reported at 2015-Jul-28 17:29 UTC. Time now 2015-Aug-03 21:19 UTC.
Position N 45°21' E 036°39'.

Length 130 m; draft 4.6 m.

Type: Cargo ship. MMSI: 271000494.

Date/timePositionNaut miles runAvg speedWind from/ knotsBaromVisibWave heightAir tempDewpointWater temp
2015-Jul-28 17:29N 45°21' E 036°39'14 6.3
2015-Jul-28 15:18N 45°09' E 036°29'4 5.3
2015-Jul-28 14:34N 45°06' E 036°30'7 6.8
2015-Jul-28 13:34N 44°59' E 036°31'10 9.8
2015-Jul-28 12:34N 44°49' E 036°31'1010.0
2015-Jul-28 11:34N 44°41' E 036°22'1010.1
2015-Jul-28 10:34N 44°34' E 036°12'1110.6
2015-Jul-28 09:34N 44°27' E 036°01'1110.6
2015-Jul-28 08:34N 44°19' E 035°50'1010.3
2015-Jul-28 07:33N 44°12' E 035°40'10 9.9
2015-Jul-28 06:32N 44°05' E 035°30'10 9.8
2015-Jul-28 05:34N 43°58' E 035°21'10 9.6
2015-Jul-28 04:31N 43°51' E 035°11'10 9.6
2015-Jul-28 03:29N 43°43' E 035°02'1010.1
2015-Jul-28 02:30N 43°37' E 034°52'2410.6
2015-Jul-28 00:15N 43°20' E 034°29'  
2015-Jul-25 00:13N 38°40' E 026°18'710.1
2015-Jul-24 23:33N 38°33' E 026°19'21 9.8
2015-Jul-24 21:25N 38°13' E 026°11'2010.3
2015-Jul-24 19:30N 37°56' E 026°23'9 9.5
2015-Jul-24 18:33N 37°48' E 026°28'22 9.1
2015-Jul-24 16:10N 37°29' E 026°43'19 9.9
2015-Jul-24 14:14N 37°14' E 026°58'710.2
2015-Jul-24 13:32N 37°08' E 027°01'166 9.5
2015-Jul-23 20:04N 35°49' E 030°02'611.1
2015-Jul-23 19:33N 35°45' E 030°08'1511.0
2015-Jul-23 18:13N 35°35' E 030°21'3011.0
2015-Jul-23 15:32N 35°15' E 030°48'1110.8
2015-Jul-23 14:33N 35°09' E 030°58'1510.2
2015-Jul-23 13:07N 35°01' E 031°13'610.0
2015-Jul-23 12:31N 34°57' E 031°18'1010.1
2015-Jul-23 11:30N 34°50' E 031°28'1010.3
2015-Jul-23 10:32N 34°44' E 031°37'1010.6
2015-Jul-23 09:33N 34°37' E 031°46'1110.6
2015-Jul-23 08:33N 34°30' E 031°56'1110.9
2015-Jul-23 07:33N 34°23' E 032°07'1111.0
2015-Jul-23 06:33N 34°16' E 032°17'1111.0
2015-Jul-23 05:33N 34°09' E 032°27'1110.7
2015-Jul-23 04:33N 34°02' E 032°37'1110.6
2015-Jul-23 03:33N 33°55' E 032°47'1110.5
2015-Jul-23 02:33N 33°48' E 032°56'1110.6
2015-Jul-23 01:33N 33°42' E 033°06'1110.6
2015-Jul-23 00:33N 33°35' E 033°16'1110.7
2015-Jul-22 23:33N 33°28' E 033°26'1110.8
2015-Jul-22 22:33N 33°22' E 033°36'1110.8
2015-Jul-22 21:33N 33°15' E 033°46'1110.8
2015-Jul-22 20:33N 33°08' E 033°56'1110.6
2015-Jul-22 19:33N 33°02' E 034°07'1010.5
2015-Jul-22 18:33N 32°60' E 034°19'1010.4
2015-Jul-22 17:33N 32°58' E 034°31'1010.3
2015-Jul-22 16:33N 32°56' E 034°43'1010.1
2015-Jul-22 15:33N 32°54' E 034°55'7 7.6
2015-Jul-22 14:33N 32°49' E 035°02'0 0.2
2015-Jul-22 13:33N 32°49' E 035°02'0 0.0
2015-Jul-22 12:33N 32°49' E 035°02'0 0.0
2015-Jul-22 10:33N 32°49' E 035°02'0 0.0
2015-Jul-20 19:19N 32°49' E 035°02'0 0.0
2015-Jul-20 12:31N 32°49' E 035°02'11 0.9
2015-Jul-20 00:10N 32°46' E 034°49'710.8
2015-Jul-19 23:33N 32°40' E 034°47'1010.4
2015-Jul-19 22:33N 32°30' E 034°43'1010.2
2015-Jul-19 21:33N 32°20' E 034°40'28 9.3
2015-Jul-19 18:31N 31°53' E 034°32'  
Track history (hours):
 
Tides and Currents Weather Stations Pressure Air Temp Water Temp Dewpoint Dewpoint Depression Visibility Wind Speed Wind Dir Waves Ship Positions

Haci Arif Kaptan

Last reported at 2015-Jul-28 17:29 UTC. Time now 2015-Aug-03 21:19 UTC.
Position N 45°21' E 036°39'.

Length 130 m; draft 4.6 m.

Type: Cargo ship. MMSI: 271000494.

Date/timePositionNaut miles runAvg speedWind from/ knotsBaromVisibWave heightAir tempDewpointWater temp
2015-Jul-28 17:29N 45°21' E 036°39'14 6.3
2015-Jul-28 15:18N 45°09' E 036°29'4 5.3
2015-Jul-28 14:34N 45°06' E 036°30'7 6.8
2015-Jul-28 13:34N 44°59' E 036°31'10 9.8
2015-Jul-28 12:34N 44°49' E 036°31'1010.0
2015-Jul-28 11:34N 44°41' E 036°22'1010.1
2015-Jul-28 10:34N 44°34' E 036°12'1110.6
2015-Jul-28 09:34N 44°27' E 036°01'1110.6
2015-Jul-28 08:34N 44°19' E 035°50'1010.3
2015-Jul-28 07:33N 44°12' E 035°40'10 9.9
2015-Jul-28 06:32N 44°05' E 035°30'10 9.8
2015-Jul-28 05:34N 43°58' E 035°21'10 9.6
2015-Jul-28 04:31N 43°51' E 035°11'10 9.6
2015-Jul-28 03:29N 43°43' E 035°02'1010.1
2015-Jul-28 02:30N 43°37' E 034°52'2410.6
2015-Jul-28 00:15N 43°20' E 034°29'  
2015-Jul-25 00:13N 38°40' E 026°18'710.1
2015-Jul-24 23:33N 38°33' E 026°19'21 9.8
2015-Jul-24 21:25N 38°13' E 026°11'2010.3
2015-Jul-24 19:30N 37°56' E 026°23'9 9.5
2015-Jul-24 18:33N 37°48' E 026°28'22 9.1
2015-Jul-24 16:10N 37°29' E 026°43'19 9.9
2015-Jul-24 14:14N 37°14' E 026°58'710.2
2015-Jul-24 13:32N 37°08' E 027°01'166 9.5
2015-Jul-23 20:04N 35°49' E 030°02'611.1
2015-Jul-23 19:33N 35°45' E 030°08'1511.0
2015-Jul-23 18:13N 35°35' E 030°21'3011.0
2015-Jul-23 15:32N 35°15' E 030°48'1110.8
2015-Jul-23 14:33N 35°09' E 030°58'1510.2
2015-Jul-23 13:07N 35°01' E 031°13'610.0
2015-Jul-23 12:31N 34°57' E 031°18'1010.1
2015-Jul-23 11:30N 34°50' E 031°28'1010.3
2015-Jul-23 10:32N 34°44' E 031°37'1010.6
2015-Jul-23 09:33N 34°37' E 031°46'1110.6
2015-Jul-23 08:33N 34°30' E 031°56'1110.9
2015-Jul-23 07:33N 34°23' E 032°07'1111.0
2015-Jul-23 06:33N 34°16' E 032°17'1111.0
2015-Jul-23 05:33N 34°09' E 032°27'1110.7
2015-Jul-23 04:33N 34°02' E 032°37'1110.6
2015-Jul-23 03:33N 33°55' E 032°47'1110.5
2015-Jul-23 02:33N 33°48' E 032°56'1110.6
2015-Jul-23 01:33N 33°42' E 033°06'1110.6
2015-Jul-23 00:33N 33°35' E 033°16'1110.7
2015-Jul-22 23:33N 33°28' E 033°26'1110.8
2015-Jul-22 22:33N 33°22' E 033°36'1110.8
2015-Jul-22 21:33N 33°15' E 033°46'1110.8
2015-Jul-22 20:33N 33°08' E 033°56'1110.6
2015-Jul-22 19:33N 33°02' E 034°07'1010.5
2015-Jul-22 18:33N 32°60' E 034°19'1010.4
2015-Jul-22 17:33N 32°58' E 034°31'1010.3
2015-Jul-22 16:33N 32°56' E 034°43'1010.1
2015-Jul-22 15:33N 32°54' E 034°55'7 7.6
2015-Jul-22 14:33N 32°49' E 035°02'0 0.2
2015-Jul-22 13:33N 32°49' E 035°02'0 0.0
2015-Jul-22 12:33N 32°49' E 035°02'0 0.0
2015-Jul-22 10:33N 32°49' E 035°02'0 0.0
2015-Jul-20 19:19N 32°49' E 035°02'0 0.0
2015-Jul-20 12:31N 32°49' E 035°02'11 0.9
2015-Jul-20 00:10N 32°46' E 034°49'710.8
2015-Jul-19 23:33N 32°40' E 034°47'1010.4
2015-Jul-19 22:33N 32°30' E 034°43'1010.2
2015-Jul-19 21:33N 32°20' E 034°40'28 9.3
2015-Jul-19 18:31N 31°53' E 034°32'  

Dump ship's entire track history